createdAt,value
2018-04-01T00:01:54.777Z,2.80
2018-04-01T00:04:23.889Z,2.70
2018-04-01T00:06:52.266Z,2.70
2018-04-01T00:09:21.349Z,2.60
2018-04-01T00:11:49.859Z,2.60
2018-04-01T00:14:18.202Z,2.70
2018-04-01T00:16:46.558Z,2.60
2018-04-01T00:19:14.864Z,2.60
2018-04-01T00:21:43.946Z,2.50
2018-04-01T00:24:12.285Z,2.50
2018-04-01T00:26:40.612Z,2.50
2018-04-01T00:29:08.930Z,2.50
2018-04-01T00:31:37.302Z,2.50
2018-04-01T00:34:05.617Z,2.50
2018-04-01T00:36:33.925Z,2.50
2018-04-01T00:39:03.338Z,2.50
2018-04-01T00:41:32.421Z,2.50
2018-04-01T00:44:00.794Z,2.50
2018-04-01T00:46:29.110Z,2.40
2018-04-01T00:48:57.489Z,2.40
2018-04-01T00:51:25.813Z,2.40
2018-04-01T00:53:54.890Z,2.50
2018-04-01T00:56:23.209Z,2.40
2018-04-01T00:58:51.522Z,2.40
2018-04-01T01:01:19.890Z,2.40
2018-04-01T01:03:48.205Z,2.40
2018-04-01T01:06:17.294Z,2.50
2018-04-01T01:08:46.546Z,2.40
2018-04-01T01:11:14.908Z,2.40
2018-04-01T01:13:43.987Z,2.40
2018-04-01T01:16:12.318Z,2.40
2018-04-01T01:18:41.433Z,2.40
2018-04-01T01:21:09.783Z,2.40
2018-04-01T01:23:38.154Z,2.40
2018-04-01T01:26:06.459Z,2.40
2018-04-01T01:28:34.770Z,2.40
2018-04-01T01:31:03.113Z,2.30
2018-04-01T01:33:31.469Z,2.30
2018-04-01T01:35:59.812Z,2.30
2018-04-01T01:38:28.127Z,2.30
2018-04-01T01:40:57.062Z,2.20
2018-04-01T01:43:25.381Z,2.20
2018-04-01T01:45:53.696Z,2.20
2018-04-01T01:48:22.040Z,2.20
2018-04-01T01:50:51.151Z,2.20
2018-04-01T01:53:20.259Z,2.20
2018-04-01T01:55:49.466Z,2.20
2018-04-01T01:58:18.545Z,2.20
2018-04-01T02:00:46.971Z,2.20
2018-04-01T02:03:15.290Z,2.20
2018-04-01T02:05:43.625Z,2.20
2018-04-01T02:08:11.946Z,2.20
2018-04-01T02:10:40.326Z,2.20
2018-04-01T02:13:08.647Z,2.20
2018-04-01T02:15:37.731Z,2.20
2018-04-01T02:18:06.126Z,2.20
2018-04-01T02:20:34.450Z,2.20
2018-04-01T02:23:02.770Z,2.20
2018-04-01T02:25:31.142Z,2.10
2018-04-01T02:27:59.483Z,2.10
2018-04-01T02:30:27.799Z,2.10
2018-04-01T02:32:56.990Z,2.10
2018-04-01T02:35:25.309Z,2.00
2018-04-01T02:37:54.399Z,2.10
2018-04-01T02:40:23.524Z,2.10
2018-04-01T02:42:52.663Z,2.10
2018-04-01T02:45:21.024Z,2.10
2018-04-01T02:47:49.342Z,2.10
2018-04-01T02:50:17.722Z,2.00
2018-04-01T02:52:46.794Z,2.00
2018-04-01T02:55:15.121Z,2.00
2018-04-01T02:57:43.478Z,2.10
2018-04-01T03:00:11.807Z,2.00
2018-04-01T03:02:40.893Z,2.10
2018-04-01T03:05:09.213Z,2.10
2018-04-01T03:07:37.586Z,2.10
2018-04-01T03:10:05.926Z,2.10
2018-04-01T03:12:34.271Z,2.10
2018-04-01T03:15:02.589Z,2.00
2018-04-01T03:17:31.680Z,2.10
2018-04-01T03:20:00.026Z,2.00
2018-04-01T03:22:28.361Z,2.10
2018-04-01T03:24:56.782Z,2.00
2018-04-01T03:27:25.138Z,2.10
2018-04-01T03:29:53.450Z,2.10
2018-04-01T03:32:22.533Z,2.00
2018-04-01T03:34:50.946Z,2.00
2018-04-01T03:37:19.496Z,2.00
2018-04-01T03:39:48.034Z,2.00
2018-04-01T03:42:16.350Z,2.00
2018-04-01T03:44:45.462Z,2.10
2018-04-01T03:47:13.842Z,2.00
2018-04-01T03:49:42.926Z,2.00
2018-04-01T03:52:11.308Z,2.00
2018-04-01T03:54:39.627Z,2.10
2018-04-01T03:57:07.947Z,2.00
2018-04-01T03:59:36.268Z,2.10
2018-04-01T04:02:04.660Z,2.00
2018-04-01T04:04:32.974Z,2.00
2018-04-01T04:07:01.294Z,2.10
2018-04-01T04:09:30.506Z,2.00
2018-04-01T04:11:58.886Z,2.10
2018-04-01T04:14:27.226Z,2.00
2018-04-01T04:16:55.545Z,2.00
2018-04-01T04:19:23.940Z,1.90
2018-04-01T04:21:52.269Z,1.90
2018-04-01T04:24:21.345Z,1.80
2018-04-01T04:26:49.669Z,1.80
2018-04-01T04:29:18.758Z,1.70
2018-04-01T04:31:47.069Z,1.80
2018-04-01T04:34:15.417Z,1.80
2018-04-01T04:36:43.737Z,1.80
2018-04-01T04:39:12.053Z,1.80
2018-04-01T04:41:40.370Z,1.80
2018-04-01T04:44:08.684Z,1.80
2018-04-01T04:46:37.224Z,1.80
2018-04-01T04:49:05.537Z,1.80
2018-04-01T04:51:34.619Z,1.80
2018-04-01T04:54:02.938Z,1.80
2018-04-01T04:56:32.017Z,1.80
2018-04-01T04:59:00.328Z,1.80
2018-04-01T05:01:29.410Z,1.80
2018-04-01T05:03:57.721Z,1.90
2018-04-01T05:06:26.037Z,1.90
2018-04-01T05:08:55.120Z,1.80
2018-04-01T05:11:23.438Z,1.80
2018-04-01T05:13:52.523Z,1.80
2018-04-01T05:16:21.615Z,1.80
2018-04-01T05:18:49.926Z,1.80
2018-04-01T05:21:19.006Z,1.80
2018-04-01T05:23:47.319Z,1.80
2018-04-01T05:26:15.639Z,1.80
2018-04-01T05:28:44.719Z,1.80
2018-04-01T05:31:13.039Z,1.80
2018-04-01T05:33:42.109Z,1.70
2018-04-01T05:36:10.738Z,1.70
2018-04-01T05:38:39.058Z,1.80
2018-04-01T05:41:07.375Z,1.80
2018-04-01T05:43:35.741Z,1.70
2018-04-01T05:46:04.374Z,1.70
2018-04-01T05:48:32.685Z,1.80
2018-04-01T05:51:01.002Z,1.80
2018-04-01T05:53:30.342Z,1.80
2018-04-01T05:55:59.333Z,1.80
2018-04-01T05:58:28.420Z,1.80
2018-04-01T06:00:56.742Z,1.80
2018-04-01T06:03:25.121Z,1.90
2018-04-01T06:05:54.222Z,1.90
2018-04-01T06:08:23.297Z,1.90
2018-04-01T06:10:51.654Z,1.90
2018-04-01T06:13:19.961Z,2.00
2018-04-01T06:15:48.283Z,2.00
2018-04-01T06:18:16.605Z,2.00
2018-04-01T06:20:45.690Z,2.00
2018-04-01T06:23:14.034Z,2.00
2018-04-01T06:25:42.349Z,2.10
2018-04-01T06:28:10.669Z,2.00
2018-04-01T06:30:39.055Z,2.00
2018-04-01T06:33:07.366Z,2.00
2018-04-01T06:35:35.681Z,2.00
2018-04-01T06:38:04.181Z,2.00
2018-04-01T06:40:32.558Z,2.10
2018-04-01T06:43:01.685Z,2.10
2018-04-01T06:45:30.824Z,2.20
2018-04-01T06:47:59.103Z,2.10
2018-04-01T06:50:27.422Z,2.20
2018-04-01T06:52:55.735Z,2.10
2018-04-01T06:55:24.054Z,2.20
2018-04-01T06:57:52.397Z,2.20
2018-04-01T07:00:20.714Z,2.20
2018-04-01T07:02:49.090Z,2.30
2018-04-01T07:05:17.418Z,2.30
2018-04-01T07:07:46.527Z,2.40
2018-04-01T07:10:15.614Z,2.40
2018-04-01T07:12:45.496Z,2.50
2018-04-01T07:15:13.866Z,2.40
2018-04-01T07:17:42.955Z,2.50
2018-04-01T07:20:11.266Z,2.50
2018-04-01T07:22:40.402Z,2.50
2018-04-01T07:25:08.763Z,2.50
2018-04-01T07:27:37.877Z,2.50
2018-04-01T07:30:06.952Z,2.50
2018-04-01T07:32:35.256Z,2.50
2018-04-01T07:35:03.569Z,2.50
2018-04-01T07:37:32.657Z,2.50
2018-04-01T07:40:00.974Z,2.50
2018-04-01T07:42:30.054Z,2.50
2018-04-01T07:44:58.370Z,2.40
2018-04-01T07:47:27.479Z,2.50
2018-04-01T07:49:56.571Z,2.60
2018-04-01T07:52:24.983Z,2.60
2018-04-01T07:54:54.081Z,2.60
2018-04-01T07:57:22.401Z,2.60
2018-04-01T07:59:50.908Z,2.60
2018-04-01T08:02:19.212Z,2.60
2018-04-01T08:04:47.526Z,2.70
2018-04-01T08:07:15.870Z,2.70
2018-04-01T08:09:44.306Z,2.70
2018-04-01T08:12:12.623Z,2.60
2018-04-01T08:14:40.934Z,2.70
2018-04-01T08:17:10.009Z,2.80
2018-04-01T08:19:38.398Z,2.70
2018-04-01T08:22:06.718Z,2.70
2018-04-01T08:24:35.035Z,2.70
2018-04-01T08:27:03.349Z,2.70
2018-04-01T08:29:31.706Z,2.80
2018-04-01T08:32:00.782Z,2.90
2018-04-01T08:34:29.105Z,2.90
2018-04-01T08:36:58.182Z,2.90
2018-04-01T08:39:26.530Z,2.90
2018-04-01T08:41:54.846Z,2.90
2018-04-01T08:44:23.183Z,2.90
2018-04-01T08:46:52.262Z,2.90
2018-04-01T08:49:20.581Z,2.90
2018-04-01T08:51:50.214Z,3.00
2018-04-01T08:54:19.295Z,3.10
2018-04-01T08:56:47.643Z,3.00
2018-04-01T08:59:15.958Z,3.00
2018-04-01T09:01:44.279Z,3.00
2018-04-01T09:04:12.737Z,3.00
2018-04-01T09:06:41.086Z,3.00
2018-04-01T09:09:10.165Z,3.00
2018-04-01T09:11:38.501Z,3.00
2018-04-01T09:14:07.602Z,3.00
2018-04-01T09:16:36.757Z,2.90
2018-04-01T09:19:05.126Z,2.90
2018-04-01T09:21:33.450Z,3.00
2018-04-01T09:24:01.823Z,3.00
2018-04-01T09:26:30.142Z,3.10
2018-04-01T09:28:58.537Z,3.00
2018-04-01T09:31:26.853Z,3.00
2018-04-01T09:33:55.172Z,3.00
2018-04-01T09:36:24.255Z,3.00
2018-04-01T09:38:52.577Z,2.90
2018-04-01T09:41:21.774Z,3.00
2018-04-01T09:43:50.845Z,3.10
2018-04-01T09:46:19.161Z,3.10
2018-04-01T09:48:47.506Z,3.10
2018-04-01T09:51:16.130Z,3.10
2018-04-01T09:53:46.272Z,3.30
2018-04-01T09:56:14.597Z,3.30
2018-04-01T09:58:43.673Z,3.40
2018-04-01T10:01:14.736Z,3.40
2018-04-01T10:03:43.828Z,3.60
2018-04-01T10:06:12.917Z,3.70
2018-04-01T10:08:42.021Z,3.70
2018-04-01T10:11:11.092Z,3.60
2018-04-01T10:13:40.914Z,3.50
2018-04-01T10:16:09.965Z,3.60
2018-04-01T10:18:39.026Z,3.60
2018-04-01T10:21:08.088Z,3.60
2018-04-01T10:26:34.928Z,3.70
2018-04-01T10:29:04.121Z,3.60
2018-04-01T10:31:33.250Z,3.70
2018-04-01T10:34:02.315Z,3.70
2018-04-01T10:36:31.374Z,3.80
2018-04-01T10:39:00.445Z,3.70
2018-04-01T10:41:29.497Z,3.70
2018-04-01T10:43:58.543Z,3.80
2018-04-01T10:46:27.593Z,3.70
2018-04-01T10:48:56.649Z,3.80
2018-04-01T10:51:25.721Z,3.80
2018-04-01T10:53:56.890Z,3.80
2018-04-01T10:56:25.321Z,4.00
2018-04-01T10:58:53.794Z,3.90
2018-04-01T11:01:22.874Z,3.70
2018-04-01T11:03:51.202Z,3.70
2018-04-01T11:06:20.279Z,3.60
2018-04-01T11:08:48.744Z,3.70
2018-04-01T11:11:17.058Z,3.60
2018-04-01T11:13:45.371Z,3.60
2018-04-01T11:16:13.713Z,3.50
2018-04-01T11:18:42.025Z,3.50
2018-04-01T11:21:10.379Z,3.70
2018-04-01T11:23:38.710Z,3.70
2018-04-01T11:26:07.165Z,3.70
2018-04-01T11:28:35.527Z,3.80
2018-04-01T11:31:03.858Z,3.80
2018-04-01T11:33:32.175Z,3.80
2018-04-01T11:36:00.550Z,3.90
2018-04-01T11:38:28.862Z,3.80
2018-04-01T11:40:58.010Z,3.80
2018-04-01T11:43:26.318Z,3.80
2018-04-01T11:45:55.636Z,3.80
2018-04-01T11:48:24.009Z,3.70
2018-04-01T11:50:52.673Z,3.80
2018-04-01T11:53:20.982Z,3.70
2018-04-01T11:55:49.306Z,3.60
2018-04-01T11:58:18.382Z,3.70
2018-04-01T12:00:46.702Z,3.70
2018-04-01T12:03:16.010Z,3.70
2018-04-01T12:05:44.355Z,3.70
2018-04-01T12:08:12.670Z,3.60
2018-04-01T12:10:41.054Z,3.60
2018-04-01T12:13:09.659Z,3.70
2018-04-01T12:15:37.990Z,3.70
2018-04-01T12:18:07.089Z,3.80
2018-04-01T12:20:36.178Z,3.70
2018-04-01T12:23:04.525Z,3.70
2018-04-01T12:25:32.935Z,3.80
2018-04-01T12:28:01.242Z,4.00
2018-04-01T12:30:29.577Z,4.20
2018-04-01T12:32:58.654Z,4.10
2018-04-01T12:35:28.481Z,4.10
2018-04-01T12:37:56.793Z,4.10
2018-04-01T12:40:25.193Z,4.00
2018-04-01T12:42:53.505Z,4.10
2018-04-01T12:45:21.813Z,4.10
2018-04-01T12:47:50.117Z,3.90
2018-04-01T12:50:18.497Z,3.80
2018-04-01T12:52:46.809Z,3.80
2018-04-01T12:55:15.897Z,3.60
2018-04-01T12:57:44.210Z,3.60
2018-04-01T13:00:12.523Z,3.60
2018-04-01T13:02:40.840Z,3.60
2018-04-01T13:05:09.917Z,3.80
2018-04-01T13:07:38.338Z,3.80
2018-04-01T13:10:06.685Z,3.80
2018-04-01T13:12:34.998Z,3.70
2018-04-01T13:15:03.311Z,3.70
2018-04-01T13:17:31.687Z,3.50
2018-04-01T13:20:00.002Z,3.50
2018-04-01T13:22:28.345Z,3.40
2018-04-01T13:24:56.678Z,3.30
2018-04-01T13:27:24.994Z,3.20
2018-04-01T13:29:54.078Z,3.30
2018-04-01T13:32:23.213Z,3.10
2018-04-01T13:34:52.368Z,3.00
2018-04-01T13:37:20.673Z,3.00
2018-04-01T13:39:48.986Z,3.00
2018-04-01T13:42:17.445Z,3.10
2018-04-01T13:44:45.809Z,3.30
2018-04-01T13:47:14.125Z,3.30
2018-04-01T13:49:42.433Z,3.30
2018-04-01T13:52:10.752Z,3.20
2018-04-01T13:54:39.062Z,3.20
2018-04-01T13:57:07.430Z,3.10
2018-04-01T13:59:35.742Z,3.20
2018-04-01T14:02:04.823Z,3.30
2018-04-01T14:04:33.170Z,3.20
2018-04-01T14:07:01.486Z,3.30
2018-04-01T14:09:29.924Z,3.20
2018-04-01T14:11:59.041Z,3.20
2018-04-01T14:14:28.130Z,3.20
2018-04-01T14:16:57.249Z,3.00
2018-04-01T14:19:25.571Z,3.00
2018-04-01T14:21:53.986Z,2.90
2018-04-01T14:24:22.361Z,3.00
2018-04-01T14:26:50.707Z,3.00
2018-04-01T14:29:19.018Z,3.10
2018-04-01T14:31:48.146Z,3.20
2018-04-01T14:34:16.462Z,3.10
2018-04-01T14:36:44.773Z,3.20
2018-04-01T14:39:14.399Z,3.10
2018-04-01T14:41:42.891Z,3.00
2018-04-01T14:44:11.197Z,3.10
2018-04-01T14:46:39.501Z,3.10
2018-04-01T14:49:07.805Z,3.10
2018-04-01T14:51:36.882Z,3.20
2018-04-01T14:54:05.250Z,3.20
2018-04-01T14:56:33.566Z,3.10
2018-04-01T14:59:01.930Z,3.00
2018-04-01T15:01:30.257Z,3.10
2018-04-01T15:03:58.574Z,3.10
2018-04-01T15:06:27.714Z,3.20
2018-04-01T15:08:56.098Z,3.10
2018-04-01T15:11:24.421Z,3.10
2018-04-01T15:13:52.807Z,3.10
2018-04-01T15:16:21.122Z,3.10
2018-04-01T15:18:49.442Z,3.10
2018-04-01T15:21:17.754Z,3.10
2018-04-01T15:23:46.841Z,3.00
2018-04-01T15:26:15.154Z,3.00
2018-04-01T15:28:44.550Z,2.90
2018-04-01T15:31:13.169Z,2.90
2018-04-01T15:33:42.245Z,2.80
2018-04-01T15:36:10.931Z,2.80
2018-04-01T15:38:39.245Z,2.80
2018-04-01T15:44:07.657Z,2.70
2018-04-01T15:46:35.970Z,2.70
2018-04-01T15:49:04.277Z,2.70
2018-04-01T15:51:33.450Z,2.80
2018-04-01T15:54:01.765Z,2.80
2018-04-01T15:56:30.073Z,2.70
2018-04-01T15:58:59.167Z,2.60
2018-04-01T16:01:27.474Z,2.60
2018-04-01T16:03:56.600Z,2.60
2018-04-01T16:06:24.907Z,2.60
2018-04-01T16:08:53.254Z,2.60
2018-04-01T16:11:21.565Z,2.60
2018-04-01T16:13:50.703Z,2.60
2018-04-01T16:16:19.430Z,2.50
2018-04-01T16:18:47.762Z,2.60
2018-04-01T16:21:16.852Z,2.60
2018-04-01T16:23:45.260Z,2.60
2018-04-01T16:26:13.590Z,2.60
2018-04-01T16:28:41.957Z,2.70
2018-04-01T16:31:11.038Z,2.60
2018-04-01T16:33:39.363Z,2.60
2018-04-01T16:36:08.465Z,2.50
2018-04-01T16:38:37.580Z,2.60
2018-04-01T16:41:06.718Z,2.60
2018-04-01T16:43:35.031Z,2.50
2018-04-01T16:46:03.382Z,2.60
2018-04-01T16:48:31.693Z,2.60
2018-04-01T16:51:00.006Z,2.60
2018-04-01T16:53:30.691Z,2.60
2018-04-01T16:55:59.100Z,2.60
2018-04-01T16:58:28.264Z,2.60
2018-04-01T17:00:56.606Z,2.50
2018-04-01T17:03:25.690Z,2.60
2018-04-01T17:05:54.030Z,2.60
2018-04-01T17:08:22.342Z,2.60
2018-04-01T17:10:50.650Z,2.60
2018-04-01T17:13:19.105Z,2.60
2018-04-01T17:15:49.161Z,2.50
2018-04-01T17:18:17.494Z,2.60
2018-04-01T17:20:46.581Z,2.60
2018-04-01T17:23:14.898Z,2.50
2018-04-01T17:25:43.791Z,2.50
2018-04-01T17:28:12.172Z,2.50
2018-04-01T17:30:41.945Z,2.50
2018-04-01T17:33:10.682Z,2.40
2018-04-01T17:35:38.985Z,2.40
2018-04-01T17:38:07.323Z,2.40
2018-04-01T17:40:36.450Z,2.40
2018-04-01T17:43:04.799Z,2.40
2018-04-01T17:45:33.113Z,2.40
2018-04-01T17:48:02.193Z,2.30
2018-04-01T17:50:30.774Z,2.30
2018-04-01T17:52:59.123Z,2.30
2018-04-01T17:55:27.437Z,2.30
2018-04-01T17:57:55.749Z,2.30
2018-04-01T18:00:24.058Z,2.30
2018-04-01T18:02:52.711Z,2.30
2018-04-01T18:05:21.034Z,2.20
2018-04-01T18:07:49.362Z,2.30
2018-04-01T18:10:18.450Z,2.30
2018-04-01T18:12:46.774Z,2.30
2018-04-01T18:15:15.973Z,2.40
2018-04-01T18:17:45.153Z,2.40
2018-04-01T18:20:13.513Z,2.40
2018-04-01T18:22:41.846Z,2.40
2018-04-01T18:25:10.203Z,2.40
2018-04-01T18:27:38.550Z,2.40
2018-04-01T18:30:07.642Z,2.30
2018-04-01T18:32:36.015Z,2.30
2018-04-01T18:35:04.333Z,2.40
2018-04-01T18:37:33.167Z,2.30
2018-04-01T18:40:02.289Z,2.30
2018-04-01T18:42:30.641Z,2.30
2018-04-01T18:45:00.706Z,2.30
2018-04-01T18:47:29.941Z,2.30
2018-04-01T18:49:58.270Z,2.30
2018-04-01T18:52:26.594Z,2.30
2018-04-01T18:54:55.811Z,2.30
2018-04-01T18:57:24.902Z,2.30
2018-04-01T18:59:53.225Z,2.30
2018-04-01T19:02:21.555Z,2.30
2018-04-01T19:04:49.884Z,2.20
2018-04-01T19:07:18.969Z,2.30
2018-04-01T19:09:47.294Z,2.30
2018-04-01T19:12:16.396Z,2.30
2018-04-01T19:14:44.775Z,2.30
2018-04-01T19:17:13.933Z,2.30
2018-04-01T19:19:43.157Z,2.30
2018-04-01T19:22:12.225Z,2.30
2018-04-01T19:24:42.103Z,2.30
2018-04-01T19:27:11.173Z,2.30
2018-04-01T19:29:41.065Z,2.40
2018-04-01T19:32:10.130Z,2.40
2018-04-01T19:34:39.233Z,2.30
2018-04-01T19:37:08.359Z,2.40
2018-04-01T19:39:37.427Z,2.40
2018-04-01T19:42:08.011Z,2.30
2018-04-01T19:44:37.083Z,2.30
2018-04-01T19:47:06.978Z,2.50
2018-04-01T19:49:36.050Z,2.40
2018-04-01T19:52:05.157Z,2.30
2018-04-01T19:54:34.222Z,2.40
2018-04-01T19:57:03.301Z,2.30
2018-04-01T19:59:32.406Z,2.30
2018-04-01T20:02:01.477Z,2.30
2018-04-01T20:04:31.554Z,2.30
2018-04-01T20:07:00.690Z,2.30
2018-04-01T20:09:29.794Z,2.30
2018-04-01T20:11:58.866Z,2.30
2018-04-01T20:14:28.001Z,2.40
2018-04-01T20:16:57.074Z,2.40
2018-04-01T20:19:26.150Z,2.50
2018-04-01T20:21:55.229Z,2.50
2018-04-01T20:24:24.298Z,2.50
2018-04-01T20:26:54.157Z,2.50
2018-04-01T20:29:23.271Z,2.40
2018-04-01T20:31:52.343Z,2.50
2018-04-01T20:34:22.191Z,2.60
2018-04-01T20:36:51.271Z,2.60
2018-04-01T20:39:20.346Z,2.50
2018-04-01T20:41:49.494Z,2.50
2018-04-01T20:44:18.557Z,2.60
2018-04-01T20:46:47.646Z,2.60
2018-04-01T20:49:16.740Z,2.60
2018-04-01T20:51:46.573Z,2.70
2018-04-01T20:54:15.647Z,2.70
2018-04-01T20:56:44.720Z,2.70
2018-04-01T20:59:13.799Z,2.70
2018-04-01T21:01:43.633Z,2.70
2018-04-01T21:04:12.706Z,2.70
2018-04-01T21:06:41.802Z,2.70
2018-04-01T21:09:11.054Z,2.70
2018-04-01T21:11:40.909Z,2.70
2018-04-01T21:14:10.058Z,2.70
2018-04-01T21:16:39.121Z,2.80
2018-04-01T21:19:08.203Z,2.80
2018-04-01T21:21:37.298Z,2.70
2018-04-01T21:24:06.413Z,2.70
2018-04-01T21:26:36.265Z,2.80
2018-04-01T21:29:06.093Z,2.80
2018-04-01T21:31:35.338Z,2.70
2018-04-01T21:34:04.411Z,2.80
2018-04-01T21:36:34.250Z,2.80
2018-04-01T21:39:04.091Z,2.80
2018-04-01T21:41:33.178Z,2.80
2018-04-01T21:44:03.014Z,2.80
2018-04-01T21:46:32.917Z,2.90
2018-04-01T21:49:02.000Z,2.90
2018-04-01T21:51:31.084Z,2.90
2018-04-01T21:54:00.157Z,2.90
2018-04-01T21:56:30.217Z,2.90
2018-04-01T21:58:59.318Z,2.80
2018-04-01T22:01:28.424Z,2.90
2018-04-01T22:03:58.486Z,2.80
2018-04-01T22:06:27.551Z,2.80
2018-04-01T22:08:57.408Z,2.70
2018-04-01T22:11:26.518Z,2.70
2018-04-01T22:13:55.598Z,2.70
2018-04-01T22:16:25.474Z,2.60
2018-04-01T22:18:54.548Z,2.60
2018-04-01T22:21:24.421Z,2.60
2018-04-01T22:23:53.505Z,2.60
2018-04-01T22:26:22.721Z,2.60
2018-04-01T22:28:51.842Z,2.60
2018-04-01T22:31:20.910Z,2.60
2018-04-01T22:33:50.754Z,2.60
2018-04-01T22:36:19.830Z,2.60
2018-04-01T22:38:49.057Z,2.60
2018-04-01T22:41:18.928Z,2.50
2018-04-01T22:43:48.001Z,2.50
2018-04-01T22:46:17.850Z,2.60
2018-04-01T22:48:46.922Z,2.60
2018-04-01T22:51:16.024Z,2.70
2018-04-01T22:53:45.099Z,2.70
2018-04-01T22:56:14.170Z,2.70
2018-04-01T22:58:44.022Z,2.70
2018-04-01T23:01:13.101Z,2.70
2018-04-01T23:03:42.938Z,2.70
2018-04-01T23:06:12.830Z,2.70
2018-04-01T23:08:41.904Z,2.70
2018-04-01T23:11:11.022Z,2.70
2018-04-01T23:13:40.093Z,2.70
2018-04-01T23:16:09.930Z,2.80
2018-04-01T23:18:39.797Z,2.80
2018-04-01T23:21:08.868Z,2.80
2018-04-01T23:23:38.767Z,2.80
2018-04-01T23:26:07.851Z,2.80
2018-04-01T23:28:36.927Z,2.80
2018-04-01T23:31:05.999Z,2.80
2018-04-01T23:33:35.067Z,2.80
2018-04-01T23:36:04.169Z,2.80
2018-04-01T23:38:33.292Z,2.80
2018-04-01T23:41:02.390Z,2.80
2018-04-01T23:43:31.457Z,2.80
2018-04-01T23:46:00.529Z,2.80
2018-04-01T23:48:29.665Z,2.80
2018-04-01T23:50:58.841Z,2.90
2018-04-01T23:53:27.918Z,2.80
2018-04-01T23:55:57.754Z,2.80
2018-04-01T23:58:26.840Z,2.70
